sensor_id;sensor_type;location;lat;lon;timestamp;temperature;humidity
28247;DHT22;34504;53.178;22.058;2022-11-15T00:01:46;8.70;99.40
28247;DHT22;34504;53.178;22.058;2022-11-15T00:04:35;8.70;99.40
28247;DHT22;34504;53.178;22.058;2022-11-15T00:07:25;8.70;99.50
28247;DHT22;34504;53.178;22.058;2022-11-15T00:10:31;8.70;99.40
28247;DHT22;34504;53.178;22.058;2022-11-15T00:13:19;8.70;99.40
28247;DHT22;34504;53.178;22.058;2022-11-15T00:16:05;8.70;99.40
28247;DHT22;34504;53.178;22.058;2022-11-15T00:18:52;8.70;99.50
28247;DHT22;34504;53.178;22.058;2022-11-15T00:21:44;8.70;99.50
28247;DHT22;34504;53.178;22.058;2022-11-15T00:24:31;8.70;99.40
28247;DHT22;34504;53.178;22.058;2022-11-15T00:27:18;8.70;99.50
28247;DHT22;34504;53.178;22.058;2022-11-15T00:30:05;8.70;99.50
28247;DHT22;34504;53.178;22.058;2022-11-15T00:38:38;8.70;99.40
28247;DHT22;34504;53.178;22.058;2022-11-15T00:41:25;8.60;99.50
28247;DHT22;34504;53.178;22.058;2022-11-15T00:44:12;8.60;99.40
28247;DHT22;34504;53.178;22.058;2022-11-15T00:47:16;8.60;99.40
28247;DHT22;34504;53.178;22.058;2022-11-15T00:50:03;8.60;99.40
28247;DHT22;34504;53.178;22.058;2022-11-15T00:53:10;8.60;99.50
28247;DHT22;34504;53.178;22.058;2022-11-15T00:56:01;8.60;99.50
28247;DHT22;34504;53.178;22.058;2022-11-15T00:59:11;8.60;99.50
28247;DHT22;34504;53.178;22.058;2022-11-15T01:02:00;8.60;99.40
28247;DHT22;34504;53.178;22.058;2022-11-15T01:04:48;8.60;99.40
28247;DHT22;34504;53.178;22.058;2022-11-15T01:07:52;8.60;99.40
28247;DHT22;34504;53.178;22.058;2022-11-15T01:11:12;8.60;99.40
28247;DHT22;34504;53.178;22.058;2022-11-15T01:14:19;8.50;99.40
28247;DHT22;34504;53.178;22.058;2022-11-15T01:17:47;8.60;99.50
28247;DHT22;34504;53.178;22.058;2022-11-15T01:20:58;8.60;99.50
28247;DHT22;34504;53.178;22.058;2022-11-15T01:23:58;8.60;99.50
28247;DHT22;34504;53.178;22.058;2022-11-15T01:26:47;8.60;99.60
28247;DHT22;34504;53.178;22.058;2022-11-15T01:29:42;8.50;99.40
28247;DHT22;34504;53.178;22.058;2022-11-15T01:32:31;8.50;99.40
28247;DHT22;34504;53.178;22.058;2022-11-15T01:35:18;8.50;99.40
28247;DHT22;34504;53.178;22.058;2022-11-15T01:38:06;8.50;99.20
28247;DHT22;34504;53.178;22.058;2022-11-15T01:40:54;8.50;99.30
28247;DHT22;34504;53.178;22.058;2022-11-15T01:47:23;8.50;99.30
28247;DHT22;34504;53.178;22.058;2022-11-15T01:50:27;8.40;99.40
28247;DHT22;34504;53.178;22.058;2022-11-15T01:53:35;8.40;99.30
28247;DHT22;34504;53.178;22.058;2022-11-15T01:56:27;8.40;99.40
28247;DHT22;34504;53.178;22.058;2022-11-15T01:59:15;8.40;99.40
28247;DHT22;34504;53.178;22.058;2022-11-15T02:02:26;8.40;99.30
28247;DHT22;34504;53.178;22.058;2022-11-15T02:05:34;8.40;99.50
28247;DHT22;34504;53.178;22.058;2022-11-15T02:08:46;8.40;99.50
28247;DHT22;34504;53.178;22.058;2022-11-15T02:11:32;8.30;99.40
28247;DHT22;34504;53.178;22.058;2022-11-15T02:14:33;8.30;99.50
28247;DHT22;34504;53.178;22.058;2022-11-15T02:21:26;8.30;99.50
28247;DHT22;34504;53.178;22.058;2022-11-15T02:30:47;8.20;99.40
28247;DHT22;34504;53.178;22.058;2022-11-15T02:34:28;8.20;99.40
28247;DHT22;34504;53.178;22.058;2022-11-15T02:41:36;8.20;99.30
28247;DHT22;34504;53.178;22.058;2022-11-15T02:44:44;8.20;99.40
28247;DHT22;34504;53.178;22.058;2022-11-15T02:47:55;8.20;99.40
28247;DHT22;34504;53.178;22.058;2022-11-15T02:50:59;8.10;99.30
28247;DHT22;34504;53.178;22.058;2022-11-15T02:54:24;8.20;99.30
28247;DHT22;34504;53.178;22.058;2022-11-15T02:57:15;8.10;99.30
28247;DHT22;34504;53.178;22.058;2022-11-15T03:00:10;8.10;99.20
28247;DHT22;34504;53.178;22.058;2022-11-15T03:06:55;8.10;99.30
28247;DHT22;34504;53.178;22.058;2022-11-15T03:10:26;8.10;99.20
28247;DHT22;34504;53.178;22.058;2022-11-15T03:13:27;8.00;99.30
28247;DHT22;34504;53.178;22.058;2022-11-15T03:16:38;8.00;99.60
28247;DHT22;34504;53.178;22.058;2022-11-15T03:19:56;8.00;99.30
28247;DHT22;34504;53.178;22.058;2022-11-15T03:23:09;8.00;99.30
28247;DHT22;34504;53.178;22.058;2022-11-15T03:26:06;7.90;99.30
28247;DHT22;34504;53.178;22.058;2022-11-15T03:28:57;8.00;99.40
28247;DHT22;34504;53.178;22.058;2022-11-15T03:31:51;8.00;99.50
28247;DHT22;34504;53.178;22.058;2022-11-15T03:34:55;8.00;99.50
28247;DHT22;34504;53.178;22.058;2022-11-15T03:38:11;7.90;99.50
28247;DHT22;34504;53.178;22.058;2022-11-15T03:41:10;8.00;99.60
28247;DHT22;34504;53.178;22.058;2022-11-15T03:47:48;7.90;99.70
28247;DHT22;34504;53.178;22.058;2022-11-15T03:53:49;7.90;99.60
28247;DHT22;34504;53.178;22.058;2022-11-15T03:57:22;7.90;99.60
28247;DHT22;34504;53.178;22.058;2022-11-15T04:00:19;7.90;99.50
28247;DHT22;34504;53.178;22.058;2022-11-15T04:04:01;7.90;99.50
28247;DHT22;34504;53.178;22.058;2022-11-15T04:06:47;7.90;99.50
28247;DHT22;34504;53.178;22.058;2022-11-15T04:09:37;7.90;99.70
28247;DHT22;34504;53.178;22.058;2022-11-15T04:12:44;7.90;99.70
28247;DHT22;34504;53.178;22.058;2022-11-15T04:15:44;7.90;99.70
28247;DHT22;34504;53.178;22.058;2022-11-15T04:18:44;7.90;99.70
28247;DHT22;34504;53.178;22.058;2022-11-15T04:21:51;7.90;99.80
28247;DHT22;34504;53.178;22.058;2022-11-15T04:25:14;7.90;99.80
28247;DHT22;34504;53.178;22.058;2022-11-15T04:28:41;7.90;99.80
28247;DHT22;34504;53.178;22.058;2022-11-15T04:32:12;7.90;99.80
28247;DHT22;34504;53.178;22.058;2022-11-15T04:35:01;7.90;99.80
28247;DHT22;34504;53.178;22.058;2022-11-15T04:38:08;7.90;99.90
28247;DHT22;34504;53.178;22.058;2022-11-15T04:40:56;7.80;99.90
28247;DHT22;34504;53.178;22.058;2022-11-15T04:43:47;7.80;99.90
28247;DHT22;34504;53.178;22.058;2022-11-15T04:46:34;7.80;99.90
28247;DHT22;34504;53.178;22.058;2022-11-15T04:49:26;7.90;99.90
28247;DHT22;34504;53.178;22.058;2022-11-15T04:52:17;7.90;99.90
28247;DHT22;34504;53.178;22.058;2022-11-15T04:55:04;7.90;99.90
28247;DHT22;34504;53.178;22.058;2022-11-15T04:58:00;7.80;99.90
28247;DHT22;34504;53.178;22.058;2022-11-15T05:00:47;7.80;99.90
28247;DHT22;34504;53.178;22.058;2022-11-15T05:03:55;7.80;99.90
28247;DHT22;34504;53.178;22.058;2022-11-15T05:07:17;7.80;99.90
28247;DHT22;34504;53.178;22.058;2022-11-15T05:10:33;7.80;99.90
28247;DHT22;34504;53.178;22.058;2022-11-15T05:13:38;7.80;99.90
28247;DHT22;34504;53.178;22.058;2022-11-15T05:16:25;7.80;99.90
28247;DHT22;34504;53.178;22.058;2022-11-15T05:19:12;7.80;99.90
28247;DHT22;34504;53.178;22.058;2022-11-15T05:21:58;7.80;99.90
28247;DHT22;34504;53.178;22.058;2022-11-15T05:24:45;7.80;99.90
28247;DHT22;34504;53.178;22.058;2022-11-15T05:27:38;7.80;99.90
28247;DHT22;34504;53.178;22.058;2022-11-15T05:34:44;7.80;99.90
28247;DHT22;34504;53.178;22.058;2022-11-15T05:37:31;7.80;99.90
28247;DHT22;34504;53.178;22.058;2022-11-15T05:40:18;7.80;99.90
28247;DHT22;34504;53.178;22.058;2022-11-15T05:43:06;7.70;99.90
28247;DHT22;34504;53.178;22.058;2022-11-15T05:45:53;7.70;99.90
28247;DHT22;34504;53.178;22.058;2022-11-15T05:48:42;7.70;99.90
28247;DHT22;34504;53.178;22.058;2022-11-15T05:51:38;7.70;99.90
28247;DHT22;34504;53.178;22.058;2022-11-15T05:54:35;7.70;99.90
28247;DHT22;34504;53.178;22.058;2022-11-15T05:57:29;7.70;99.90
28247;DHT22;34504;53.178;22.058;2022-11-15T06:00:36;7.70;99.90
28247;DHT22;34504;53.178;22.058;2022-11-15T06:07:01;7.70;99.90
28247;DHT22;34504;53.178;22.058;2022-11-15T06:10:28;7.80;99.90
28247;DHT22;34504;53.178;22.058;2022-11-15T06:14:10;7.70;99.90
28247;DHT22;34504;53.178;22.058;2022-11-15T06:17:05;7.70;99.90
28247;DHT22;34504;53.178;22.058;2022-11-15T06:23:38;7.70;99.90
28247;DHT22;34504;53.178;22.058;2022-11-15T06:26:52;7.60;99.90
28247;DHT22;34504;53.178;22.058;2022-11-15T06:29:45;7.70;99.90
28247;DHT22;34504;53.178;22.058;2022-11-15T06:33:00;7.60;99.90
28247;DHT22;34504;53.178;22.058;2022-11-15T06:36:33;7.60;99.90
28247;DHT22;34504;53.178;22.058;2022-11-15T06:39:43;7.70;99.90
28247;DHT22;34504;53.178;22.058;2022-11-15T06:42:45;7.70;99.90
28247;DHT22;34504;53.178;22.058;2022-11-15T06:45:37;7.70;99.90
28247;DHT22;34504;53.178;22.058;2022-11-15T06:48:39;7.70;99.90
28247;DHT22;34504;53.178;22.058;2022-11-15T06:51:40;7.70;99.90
28247;DHT22;34504;53.178;22.058;2022-11-15T06:54:57;7.60;99.90
28247;DHT22;34504;53.178;22.058;2022-11-15T06:57:57;7.70;99.90
28247;DHT22;34504;53.178;22.058;2022-11-15T07:01:27;7.70;99.90
28247;DHT22;34504;53.178;22.058;2022-11-15T07:04:28;7.70;99.90
28247;DHT22;34504;53.178;22.058;2022-11-15T07:08:03;7.70;99.90
28247;DHT22;34504;53.178;22.058;2022-11-15T07:11:07;7.70;99.90
28247;DHT22;34504;53.178;22.058;2022-11-15T07:14:54;7.70;99.90
28247;DHT22;34504;53.178;22.058;2022-11-15T07:18:05;7.70;99.90
28247;DHT22;34504;53.178;22.058;2022-11-15T07:24:27;7.70;99.90
28247;DHT22;34504;53.178;22.058;2022-11-15T07:27:53;7.80;99.90
28247;DHT22;34504;53.178;22.058;2022-11-15T07:31:08;7.80;99.90
28247;DHT22;34504;53.178;22.058;2022-11-15T07:34:39;7.80;99.90
28247;DHT22;34504;53.178;22.058;2022-11-15T07:37:32;7.80;99.90
28247;DHT22;34504;53.178;22.058;2022-11-15T07:40:41;7.80;99.90
28247;DHT22;34504;53.178;22.058;2022-11-15T07:43:52;7.80;99.90
28247;DHT22;34504;53.178;22.058;2022-11-15T07:46:45;7.80;99.90
28247;DHT22;34504;53.178;22.058;2022-11-15T07:50:04;7.80;99.90
28247;DHT22;34504;53.178;22.058;2022-11-15T07:53:10;7.80;99.90
28247;DHT22;34504;53.178;22.058;2022-11-15T07:56:16;7.80;99.90
28247;DHT22;34504;53.178;22.058;2022-11-15T08:02:23;7.80;99.90
28247;DHT22;34504;53.178;22.058;2022-11-15T08:05:35;7.80;99.90
28247;DHT22;34504;53.178;22.058;2022-11-15T08:08:39;7.80;99.90
28247;DHT22;34504;53.178;22.058;2022-11-15T08:11:43;7.80;99.90
28247;DHT22;34504;53.178;22.058;2022-11-15T08:14:42;7.80;99.90
28247;DHT22;34504;53.178;22.058;2022-11-15T08:17:46;7.80;99.90
28247;DHT22;34504;53.178;22.058;2022-11-15T08:20:57;7.80;99.90
28247;DHT22;34504;53.178;22.058;2022-11-15T08:24:10;7.80;99.90
28247;DHT22;34504;53.178;22.058;2022-11-15T08:27:16;7.70;99.90
28247;DHT22;34504;53.178;22.058;2022-11-15T08:30:09;7.80;99.90
28247;DHT22;34504;53.178;22.058;2022-11-15T08:33:10;7.80;99.90
28247;DHT22;34504;53.178;22.058;2022-11-15T08:36:21;7.80;99.90
28247;DHT22;34504;53.178;22.058;2022-11-15T08:39:31;7.80;99.90
28247;DHT22;34504;53.178;22.058;2022-11-15T08:42:26;7.80;99.90
28247;DHT22;34504;53.178;22.058;2022-11-15T08:45:42;7.80;99.90
28247;DHT22;34504;53.178;22.058;2022-11-15T08:49:02;7.80;99.90
28247;DHT22;34504;53.178;22.058;2022-11-15T08:52:04;7.90;99.90
28247;DHT22;34504;53.178;22.058;2022-11-15T08:55:15;7.90;99.90
28247;DHT22;34504;53.178;22.058;2022-11-15T09:01:26;7.90;99.90
28247;DHT22;34504;53.178;22.058;2022-11-15T09:04:42;7.90;99.90
28247;DHT22;34504;53.178;22.058;2022-11-15T09:07:37;7.90;99.90
28247;DHT22;34504;53.178;22.058;2022-11-15T09:10:55;7.90;99.90
28247;DHT22;34504;53.178;22.058;2022-11-15T09:14:16;7.90;99.90
28247;DHT22;34504;53.178;22.058;2022-11-15T09:17:51;7.90;99.90
28247;DHT22;34504;53.178;22.058;2022-11-15T09:20:58;7.90;99.90
28247;DHT22;34504;53.178;22.058;2022-11-15T09:24:13;7.90;99.90
28247;DHT22;34504;53.178;22.058;2022-11-15T09:27:10;7.90;99.90
28247;DHT22;34504;53.178;22.058;2022-11-15T09:29:57;7.90;99.90
28247;DHT22;34504;53.178;22.058;2022-11-15T09:33:08;7.90;99.90
28247;DHT22;34504;53.178;22.058;2022-11-15T09:36:18;7.90;99.90
28247;DHT22;34504;53.178;22.058;2022-11-15T09:39:25;7.90;99.90
28247;DHT22;34504;53.178;22.058;2022-11-15T09:46:28;7.90;99.90
28247;DHT22;34504;53.178;22.058;2022-11-15T09:49:58;8.00;99.90
28247;DHT22;34504;53.178;22.058;2022-11-15T09:52:35;8.00;99.90
28247;DHT22;34504;53.178;22.058;2022-11-15T09:55:27;8.00;99.90
28247;DHT22;34504;53.178;22.058;2022-11-15T09:58:44;8.00;99.90
28247;DHT22;34504;53.178;22.058;2022-11-15T10:05:24;7.90;99.90
28247;DHT22;34504;53.178;22.058;2022-11-15T10:22:35;7.90;99.90
28247;DHT22;34504;53.178;22.058;2022-11-15T10:25:29;7.90;99.90
28247;DHT22;34504;53.178;22.058;2022-11-15T10:30:08;7.90;99.90
28247;DHT22;34504;53.178;22.058;2022-11-15T10:33:35;8.00;99.90
28247;DHT22;34504;53.178;22.058;2022-11-15T10:37:11;8.00;99.90
28247;DHT22;34504;53.178;22.058;2022-11-15T10:40:21;8.00;99.90
28247;DHT22;34504;53.178;22.058;2022-11-15T10:49:33;8.00;99.90
28247;DHT22;34504;53.178;22.058;2022-11-15T10:52:57;7.90;99.90
28247;DHT22;34504;53.178;22.058;2022-11-15T10:55:47;7.80;99.90
28247;DHT22;34504;53.178;22.058;2022-11-15T10:58:53;7.70;99.90
28247;DHT22;34504;53.178;22.058;2022-11-15T11:01:50;7.60;99.90
28247;DHT22;34504;53.178;22.058;2022-11-15T11:04:58;7.40;99.90
28247;DHT22;34504;53.178;22.058;2022-11-15T11:08:01;7.40;99.90
28247;DHT22;34504;53.178;22.058;2022-11-15T11:11:05;7.40;99.90
28247;DHT22;34504;53.178;22.058;2022-11-15T11:14:40;7.40;99.90
28247;DHT22;34504;53.178;22.058;2022-11-15T11:20:44;7.50;99.90
28247;DHT22;34504;53.178;22.058;2022-11-15T11:26:35;7.40;99.90
28247;DHT22;34504;53.178;22.058;2022-11-15T11:39:17;7.60;99.90
28247;DHT22;34504;53.178;22.058;2022-11-15T11:48:48;7.50;99.90
28247;DHT22;34504;53.178;22.058;2022-11-15T11:59:34;7.30;99.90
28247;DHT22;34504;53.178;22.058;2022-11-15T12:08:14;7.40;99.90
28247;DHT22;34504;53.178;22.058;2022-11-15T12:15:19;7.40;99.90
28247;DHT22;34504;53.178;22.058;2022-11-15T12:18:12;7.40;99.90
28247;DHT22;34504;53.178;22.058;2022-11-15T12:21:00;7.40;99.90
28247;DHT22;34504;53.178;22.058;2022-11-15T12:27:40;7.40;99.90
28247;DHT22;34504;53.178;22.058;2022-11-15T12:30:19;7.30;99.90
28247;DHT22;34504;53.178;22.058;2022-11-15T12:32:57;7.30;99.90
28247;DHT22;34504;53.178;22.058;2022-11-15T12:35:37;7.30;99.90
28247;DHT22;34504;53.178;22.058;2022-11-15T12:38:10;7.20;99.90
28247;DHT22;34504;53.178;22.058;2022-11-15T12:41:13;7.10;99.90
28247;DHT22;34504;53.178;22.058;2022-11-15T12:43:43;7.00;99.90
28247;DHT22;34504;53.178;22.058;2022-11-15T12:59:57;6.70;99.90
28247;DHT22;34504;53.178;22.058;2022-11-15T13:02:39;6.70;99.90
28247;DHT22;34504;53.178;22.058;2022-11-15T13:08:00;6.70;99.90
28247;DHT22;34504;53.178;22.058;2022-11-15T13:10:32;6.70;99.90
28247;DHT22;34504;53.178;22.058;2022-11-15T13:13:08;6.70;99.90
28247;DHT22;34504;53.178;22.058;2022-11-15T13:15:56;6.60;99.90
28247;DHT22;34504;53.178;22.058;2022-11-15T13:18:36;6.70;99.90
28247;DHT22;34504;53.178;22.058;2022-11-15T13:21:22;6.70;99.90
28247;DHT22;34504;53.178;22.058;2022-11-15T13:24:17;6.60;99.90
28247;DHT22;34504;53.178;22.058;2022-11-15T13:26:45;6.60;99.90
28247;DHT22;34504;53.178;22.058;2022-11-15T13:29:18;6.60;99.90
28247;DHT22;34504;53.178;22.058;2022-11-15T13:31:47;6.60;99.90
28247;DHT22;34504;53.178;22.058;2022-11-15T13:40:34;6.60;99.90
28247;DHT22;34504;53.178;22.058;2022-11-15T13:46:19;6.70;99.90
28247;DHT22;34504;53.178;22.058;2022-11-15T13:49:05;6.70;99.90
28247;DHT22;34504;53.178;22.058;2022-11-15T13:54:38;6.60;99.90
28247;DHT22;34504;53.178;22.058;2022-11-15T13:59:52;6.60;99.90
28247;DHT22;34504;53.178;22.058;2022-11-15T14:02:30;6.60;99.90
28247;DHT22;34504;53.178;22.058;2022-11-15T14:05:17;6.60;99.90
28247;DHT22;34504;53.178;22.058;2022-11-15T14:07:58;6.60;99.90
28247;DHT22;34504;53.178;22.058;2022-11-15T14:10:30;6.60;99.90
28247;DHT22;34504;53.178;22.058;2022-11-15T14:13:00;6.60;99.90
28247;DHT22;34504;53.178;22.058;2022-11-15T14:15:36;6.60;99.90
28247;DHT22;34504;53.178;22.058;2022-11-15T14:18:05;6.50;99.90
28247;DHT22;34504;53.178;22.058;2022-11-15T14:20:38;6.40;99.90
28247;DHT22;34504;53.178;22.058;2022-11-15T14:23:40;6.40;99.90
28247;DHT22;34504;53.178;22.058;2022-11-15T14:26:30;6.30;99.90
28247;DHT22;34504;53.178;22.058;2022-11-15T14:29:29;6.30;99.90
28247;DHT22;34504;53.178;22.058;2022-11-15T14:32:19;6.30;99.90
28247;DHT22;34504;53.178;22.058;2022-11-15T14:34:53;6.30;99.90
28247;DHT22;34504;53.178;22.058;2022-11-15T14:37:30;6.20;99.90
28247;DHT22;34504;53.178;22.058;2022-11-15T14:40:05;6.20;99.90
28247;DHT22;34504;53.178;22.058;2022-11-15T14:42:34;6.10;99.90
28247;DHT22;34504;53.178;22.058;2022-11-15T14:45:02;6.10;99.90
28247;DHT22;34504;53.178;22.058;2022-11-15T14:47:31;6.20;99.90
28247;DHT22;34504;53.178;22.058;2022-11-15T14:49:59;6.20;99.90
28247;DHT22;34504;53.178;22.058;2022-11-15T14:52:33;6.20;99.90
28247;DHT22;34504;53.178;22.058;2022-11-15T14:55:32;6.30;99.90
28247;DHT22;34504;53.178;22.058;2022-11-15T14:58:02;6.30;99.90
28247;DHT22;34504;53.178;22.058;2022-11-15T15:00:31;6.30;99.90
28247;DHT22;34504;53.178;22.058;2022-11-15T15:03:01;6.40;99.90
28247;DHT22;34504;53.178;22.058;2022-11-15T15:05:35;6.40;99.90
28247;DHT22;34504;53.178;22.058;2022-11-15T15:08:05;6.30;99.90
28247;DHT22;34504;53.178;22.058;2022-11-15T15:10:40;6.30;99.90
28247;DHT22;34504;53.178;22.058;2022-11-15T15:13:22;6.30;99.90
28247;DHT22;34504;53.178;22.058;2022-11-15T15:15:51;6.30;99.90
28247;DHT22;34504;53.178;22.058;2022-11-15T15:18:20;6.30;99.90
28247;DHT22;34504;53.178;22.058;2022-11-15T15:20:58;6.40;99.90
28247;DHT22;34504;53.178;22.058;2022-11-15T15:23:32;6.40;99.90
28247;DHT22;34504;53.178;22.058;2022-11-15T15:26:01;6.40;99.90
28247;DHT22;34504;53.178;22.058;2022-11-15T15:28:28;6.40;99.90
28247;DHT22;34504;53.178;22.058;2022-11-15T15:31:04;6.40;99.90
28247;DHT22;34504;53.178;22.058;2022-11-15T15:33:32;6.40;99.90
28247;DHT22;34504;53.178;22.058;2022-11-15T15:36:01;6.40;99.90
28247;DHT22;34504;53.178;22.058;2022-11-15T15:38:29;6.40;99.90
28247;DHT22;34504;53.178;22.058;2022-11-15T15:41:01;6.40;99.90
28247;DHT22;34504;53.178;22.058;2022-11-15T15:43:32;6.40;99.90
28247;DHT22;34504;53.178;22.058;2022-11-15T15:46:02;6.50;99.90
28247;DHT22;34504;53.178;22.058;2022-11-15T15:48:31;6.50;99.90
28247;DHT22;34504;53.178;22.058;2022-11-15T15:51:01;6.50;99.90
28247;DHT22;34504;53.178;22.058;2022-11-15T15:53:42;6.50;99.90
28247;DHT22;34504;53.178;22.058;2022-11-15T15:56:14;6.60;99.90
28247;DHT22;34504;53.178;22.058;2022-11-15T15:58:43;6.60;99.90
28247;DHT22;34504;53.178;22.058;2022-11-15T16:01:12;6.60;99.90
28247;DHT22;34504;53.178;22.058;2022-11-15T16:03:41;6.60;99.90
28247;DHT22;34504;53.178;22.058;2022-11-15T16:06:36;6.70;99.90
28247;DHT22;34504;53.178;22.058;2022-11-15T16:09:16;6.70;99.90
28247;DHT22;34504;53.178;22.058;2022-11-15T16:11:46;6.70;99.90
28247;DHT22;34504;53.178;22.058;2022-11-15T16:14:17;6.70;99.90
28247;DHT22;34504;53.178;22.058;2022-11-15T16:16:49;6.70;99.90
28247;DHT22;34504;53.178;22.058;2022-11-15T16:19:17;6.70;99.90
28247;DHT22;34504;53.178;22.058;2022-11-15T16:21:49;6.70;99.90
28247;DHT22;34504;53.178;22.058;2022-11-15T16:24:18;6.70;99.90
28247;DHT22;34504;53.178;22.058;2022-11-15T16:26:48;6.70;99.90
28247;DHT22;34504;53.178;22.058;2022-11-15T16:29:17;6.70;99.90
28247;DHT22;34504;53.178;22.058;2022-11-15T16:31:47;6.70;99.90
28247;DHT22;34504;53.178;22.058;2022-11-15T16:34:17;6.70;99.90
28247;DHT22;34504;53.178;22.058;2022-11-15T16:36:46;6.70;99.90
28247;DHT22;34504;53.178;22.058;2022-11-15T16:39:14;6.70;99.90
28247;DHT22;34504;53.178;22.058;2022-11-15T16:41:45;6.70;99.90
28247;DHT22;34504;53.178;22.058;2022-11-15T16:44:14;6.60;99.90
28247;DHT22;34504;53.178;22.058;2022-11-15T16:46:43;6.60;99.90
28247;DHT22;34504;53.178;22.058;2022-11-15T16:49:14;6.60;99.90
28247;DHT22;34504;53.178;22.058;2022-11-15T16:51:49;6.60;99.90
28247;DHT22;34504;53.178;22.058;2022-11-15T16:54:18;6.50;99.90
28247;DHT22;34504;53.178;22.058;2022-11-15T16:56:50;6.50;99.90
28247;DHT22;34504;53.178;22.058;2022-11-15T16:59:18;6.50;99.90
28247;DHT22;34504;53.178;22.058;2022-11-15T17:01:48;6.50;99.90
28247;DHT22;34504;53.178;22.058;2022-11-15T17:04:19;6.60;99.90
28247;DHT22;34504;53.178;22.058;2022-11-15T17:06:49;6.50;99.90
28247;DHT22;34504;53.178;22.058;2022-11-15T17:09:20;6.60;99.90
28247;DHT22;34504;53.178;22.058;2022-11-15T17:11:52;6.60;99.90
28247;DHT22;34504;53.178;22.058;2022-11-15T17:14:20;6.60;99.90
28247;DHT22;34504;53.178;22.058;2022-11-15T17:16:51;6.60;99.90
28247;DHT22;34504;53.178;22.058;2022-11-15T17:19:21;6.60;99.90
28247;DHT22;34504;53.178;22.058;2022-11-15T17:21:50;6.60;99.90
28247;DHT22;34504;53.178;22.058;2022-11-15T17:24:18;6.50;99.90
28247;DHT22;34504;53.178;22.058;2022-11-15T17:26:48;6.60;99.90
28247;DHT22;34504;53.178;22.058;2022-11-15T17:29:16;6.60;99.90
28247;DHT22;34504;53.178;22.058;2022-11-15T17:31:45;6.60;99.90
28247;DHT22;34504;53.178;22.058;2022-11-15T17:34:14;6.60;99.90
28247;DHT22;34504;53.178;22.058;2022-11-15T17:36:42;6.50;99.90
28247;DHT22;34504;53.178;22.058;2022-11-15T17:39:10;6.60;99.90
28247;DHT22;34504;53.178;22.058;2022-11-15T17:41:41;6.60;99.90
28247;DHT22;34504;53.178;22.058;2022-11-15T17:44:09;6.60;99.90
28247;DHT22;34504;53.178;22.058;2022-11-15T17:46:38;6.60;99.90
28247;DHT22;34504;53.178;22.058;2022-11-15T17:49:07;6.70;99.90
28247;DHT22;34504;53.178;22.058;2022-11-15T17:51:36;6.70;99.90
28247;DHT22;34504;53.178;22.058;2022-11-15T17:54:04;6.70;99.90
28247;DHT22;34504;53.178;22.058;2022-11-15T17:56:38;6.70;99.90
28247;DHT22;34504;53.178;22.058;2022-11-15T17:59:10;6.80;99.90
28247;DHT22;34504;53.178;22.058;2022-11-15T18:01:45;6.70;99.90
28247;DHT22;34504;53.178;22.058;2022-11-15T18:04:14;6.70;99.90
28247;DHT22;34504;53.178;22.058;2022-11-15T18:06:43;6.70;99.90
28247;DHT22;34504;53.178;22.058;2022-11-15T18:09:14;6.60;99.90
28247;DHT22;34504;53.178;22.058;2022-11-15T18:11:43;6.60;99.90
28247;DHT22;34504;53.178;22.058;2022-11-15T18:14:16;6.60;99.90
28247;DHT22;34504;53.178;22.058;2022-11-15T18:16:50;6.60;99.90
28247;DHT22;34504;53.178;22.058;2022-11-15T18:19:19;6.60;99.90
28247;DHT22;34504;53.178;22.058;2022-11-15T18:21:48;6.50;99.90
28247;DHT22;34504;53.178;22.058;2022-11-15T18:24:35;6.50;99.90
28247;DHT22;34504;53.178;22.058;2022-11-15T18:27:07;6.50;99.90
28247;DHT22;34504;53.178;22.058;2022-11-15T18:29:35;6.50;99.90
28247;DHT22;34504;53.178;22.058;2022-11-15T18:32:05;6.40;99.90
28247;DHT22;34504;53.178;22.058;2022-11-15T18:34:39;6.40;99.90
28247;DHT22;34504;53.178;22.058;2022-11-15T18:37:08;6.40;99.90
28247;DHT22;34504;53.178;22.058;2022-11-15T18:39:36;6.30;99.90
28247;DHT22;34504;53.178;22.058;2022-11-15T18:42:04;6.30;99.90
28247;DHT22;34504;53.178;22.058;2022-11-15T18:44:33;6.30;99.90
28247;DHT22;34504;53.178;22.058;2022-11-15T18:47:02;6.20;99.90
28247;DHT22;34504;53.178;22.058;2022-11-15T18:49:30;6.20;99.90
28247;DHT22;34504;53.178;22.058;2022-11-15T18:51:59;6.30;99.90
28247;DHT22;34504;53.178;22.058;2022-11-15T18:54:28;6.20;99.90
28247;DHT22;34504;53.178;22.058;2022-11-15T18:56:59;6.20;99.90
28247;DHT22;34504;53.178;22.058;2022-11-15T18:59:28;6.20;99.90
28247;DHT22;34504;53.178;22.058;2022-11-15T19:01:56;6.20;99.90
28247;DHT22;34504;53.178;22.058;2022-11-15T19:04:24;6.20;99.90
28247;DHT22;34504;53.178;22.058;2022-11-15T19:06:53;6.20;99.90
28247;DHT22;34504;53.178;22.058;2022-11-15T19:09:21;6.20;99.90
28247;DHT22;34504;53.178;22.058;2022-11-15T19:11:55;6.30;99.90
28247;DHT22;34504;53.178;22.058;2022-11-15T19:14:25;6.20;99.90
28247;DHT22;34504;53.178;22.058;2022-11-15T19:16:55;6.20;99.90
28247;DHT22;34504;53.178;22.058;2022-11-15T19:19:25;6.20;99.90
28247;DHT22;34504;53.178;22.058;2022-11-15T19:22:02;6.20;99.90
28247;DHT22;34504;53.178;22.058;2022-11-15T19:24:30;6.20;99.90
28247;DHT22;34504;53.178;22.058;2022-11-15T19:27:01;6.20;99.90
28247;DHT22;34504;53.178;22.058;2022-11-15T19:29:29;6.20;99.90
28247;DHT22;34504;53.178;22.058;2022-11-15T19:31:58;6.20;99.90
28247;DHT22;34504;53.178;22.058;2022-11-15T19:34:29;6.20;99.90
28247;DHT22;34504;53.178;22.058;2022-11-15T19:36:58;6.20;99.90
28247;DHT22;34504;53.178;22.058;2022-11-15T19:39:26;6.20;99.90
28247;DHT22;34504;53.178;22.058;2022-11-15T19:41:55;6.20;99.90
28247;DHT22;34504;53.178;22.058;2022-11-15T19:44:22;6.20;99.90
28247;DHT22;34504;53.178;22.058;2022-11-15T19:46:53;6.20;99.90
28247;DHT22;34504;53.178;22.058;2022-11-15T19:49:21;6.20;99.90
28247;DHT22;34504;53.178;22.058;2022-11-15T19:51:51;6.20;99.90
28247;DHT22;34504;53.178;22.058;2022-11-15T19:54:19;6.30;99.90
28247;DHT22;34504;53.178;22.058;2022-11-15T19:56:48;6.20;99.90
28247;DHT22;34504;53.178;22.058;2022-11-15T19:59:16;6.30;99.90
28247;DHT22;34504;53.178;22.058;2022-11-15T20:01:44;6.30;99.90
28247;DHT22;34504;53.178;22.058;2022-11-15T20:04:12;6.30;99.90
28247;DHT22;34504;53.178;22.058;2022-11-15T20:06:43;6.30;99.90
28247;DHT22;34504;53.178;22.058;2022-11-15T20:09:12;6.40;99.90
28247;DHT22;34504;53.178;22.058;2022-11-15T20:11:44;6.30;99.90
28247;DHT22;34504;53.178;22.058;2022-11-15T20:14:13;6.40;99.90
28247;DHT22;34504;53.178;22.058;2022-11-15T20:16:46;6.40;99.90
28247;DHT22;34504;53.178;22.058;2022-11-15T20:19:22;6.40;99.90
28247;DHT22;34504;53.178;22.058;2022-11-15T20:21:55;6.40;99.90
28247;DHT22;34504;53.178;22.058;2022-11-15T20:24:23;6.40;99.90
28247;DHT22;34504;53.178;22.058;2022-11-15T20:26:52;6.40;99.90